sensor_id;sensor_type;location;lat;lon;timestamp;P1;durP1;ratioP1;P2;durP2;ratioP2
21786;SDS011;11055;50.870;4.316;2023-07-13T00:01:15;9.70;;;1.90;;
21786;SDS011;11055;50.870;4.316;2023-07-13T00:03:42;4.95;;;1.90;;
21786;SDS011;11055;50.870;4.316;2023-07-13T00:06:08;6.15;;;1.70;;
21786;SDS011;11055;50.870;4.316;2023-07-13T00:08:34;6.60;;;1.88;;
21786;SDS011;11055;50.870;4.316;2023-07-13T00:11:01;5.30;;;1.73;;
21786;SDS011;11055;50.870;4.316;2023-07-13T00:13:27;9.40;;;2.13;;
21786;SDS011;11055;50.870;4.316;2023-07-13T00:15:54;5.07;;;1.63;;
21786;SDS011;11055;50.870;4.316;2023-07-13T00:18:21;8.55;;;2.08;;
21786;SDS011;11055;50.870;4.316;2023-07-13T00:20:47;9.00;;;2.15;;
21786;SDS011;11055;50.870;4.316;2023-07-13T00:23:13;8.13;;;1.95;;
21786;SDS011;11055;50.870;4.316;2023-07-13T00:25:38;7.30;;;2.38;;
21786;SDS011;11055;50.870;4.316;2023-07-13T00:28:04;8.00;;;1.83;;
21786;SDS011;11055;50.870;4.316;2023-07-13T00:30:29;4.25;;;1.88;;
21786;SDS011;11055;50.870;4.316;2023-07-13T00:32:55;8.27;;;2.30;;
21786;SDS011;11055;50.870;4.316;2023-07-13T00:35:21;9.98;;;2.13;;
21786;SDS011;11055;50.870;4.316;2023-07-13T00:37:46;7.15;;;2.15;;
21786;SDS011;11055;50.870;4.316;2023-07-13T00:40:12;6.30;;;2.05;;
21786;SDS011;11055;50.870;4.316;2023-07-13T00:42:39;7.65;;;2.33;;
21786;SDS011;11055;50.870;4.316;2023-07-13T00:46:02;8.63;;;1.95;;
21786;SDS011;11055;50.870;4.316;2023-07-13T00:47:52;6.57;;;1.70;;
21786;SDS011;11055;50.870;4.316;2023-07-13T00:50:18;8.13;;;1.95;;
21786;SDS011;11055;50.870;4.316;2023-07-13T00:52:46;6.78;;;1.80;;
21786;SDS011;11055;50.870;4.316;2023-07-13T00:55:15;8.90;;;1.90;;
21786;SDS011;11055;50.870;4.316;2023-07-13T00:57:43;6.22;;;2.08;;
21786;SDS011;11055;50.870;4.316;2023-07-13T01:00:09;7.75;;;2.20;;
21786;SDS011;11055;50.870;4.316;2023-07-13T01:02:38;8.98;;;2.05;;
21786;SDS011;11055;50.870;4.316;2023-07-13T01:05:10;8.45;;;1.88;;
21786;SDS011;11055;50.870;4.316;2023-07-13T01:07:40;10.07;;;2.22;;
21786;SDS011;11055;50.870;4.316;2023-07-13T01:10:08;4.45;;;1.75;;
21786;SDS011;11055;50.870;4.316;2023-07-13T01:12:35;6.50;;;2.10;;
21786;SDS011;11055;50.870;4.316;2023-07-13T01:15:02;8.82;;;2.22;;
21786;SDS011;11055;50.870;4.316;2023-07-13T01:17:29;6.90;;;2.50;;
21786;SDS011;11055;50.870;4.316;2023-07-13T01:19:58;8.23;;;2.03;;
21786;SDS011;11055;50.870;4.316;2023-07-13T01:22:25;9.57;;;2.30;;
21786;SDS011;11055;50.870;4.316;2023-07-13T01:24:52;10.35;;;2.47;;
21786;SDS011;11055;50.870;4.316;2023-07-13T01:27:23;11.20;;;2.10;;
21786;SDS011;11055;50.870;4.316;2023-07-13T01:29:50;7.20;;;2.00;;
21786;SDS011;11055;50.870;4.316;2023-07-13T01:32:18;6.18;;;2.13;;
21786;SDS011;11055;50.870;4.316;2023-07-13T01:34:49;6.75;;;1.88;;
21786;SDS011;11055;50.870;4.316;2023-07-13T01:37:19;7.72;;;1.88;;
21786;SDS011;11055;50.870;4.316;2023-07-13T01:39:45;9.95;;;2.92;;
21786;SDS011;11055;50.870;4.316;2023-07-13T01:42:12;7.75;;;2.20;;
21786;SDS011;11055;50.870;4.316;2023-07-13T01:44:38;8.60;;;2.42;;
21786;SDS011;11055;50.870;4.316;2023-07-13T01:47:04;7.63;;;1.95;;
21786;SDS011;11055;50.870;4.316;2023-07-13T01:49:30;5.63;;;2.10;;
21786;SDS011;11055;50.870;4.316;2023-07-13T01:51:55;5.82;;;1.95;;
21786;SDS011;11055;50.870;4.316;2023-07-13T01:54:21;8.43;;;1.98;;
21786;SDS011;11055;50.870;4.316;2023-07-13T01:56:47;5.90;;;2.05;;
21786;SDS011;11055;50.870;4.316;2023-07-13T01:59:12;9.98;;;2.15;;
21786;SDS011;11055;50.870;4.316;2023-07-13T02:01:38;9.25;;;2.13;;
21786;SDS011;11055;50.870;4.316;2023-07-13T02:04:04;9.45;;;2.28;;
21786;SDS011;11055;50.870;4.316;2023-07-13T02:06:30;9.05;;;2.05;;
21786;SDS011;11055;50.870;4.316;2023-07-13T02:08:55;10.18;;;2.53;;
21786;SDS011;11055;50.870;4.316;2023-07-13T02:11:22;9.45;;;2.38;;
21786;SDS011;11055;50.870;4.316;2023-07-13T02:13:49;8.65;;;2.35;;
21786;SDS011;11055;50.870;4.316;2023-07-13T02:16:15;8.63;;;2.20;;
21786;SDS011;11055;50.870;4.316;2023-07-13T02:18:41;9.60;;;2.70;;
21786;SDS011;11055;50.870;4.316;2023-07-13T02:21:07;7.82;;;2.60;;
21786;SDS011;11055;50.870;4.316;2023-07-13T02:23:33;9.30;;;2.45;;
21786;SDS011;11055;50.870;4.316;2023-07-13T02:25:59;6.03;;;2.15;;
21786;SDS011;11055;50.870;4.316;2023-07-13T02:28:27;10.15;;;2.20;;
21786;SDS011;11055;50.870;4.316;2023-07-13T02:30:53;9.63;;;2.75;;
21786;SDS011;11055;50.870;4.316;2023-07-13T02:33:19;10.13;;;2.47;;
21786;SDS011;11055;50.870;4.316;2023-07-13T02:35:44;8.35;;;2.92;;
21786;SDS011;11055;50.870;4.316;2023-07-13T02:38:10;8.32;;;2.60;;
21786;SDS011;11055;50.870;4.316;2023-07-13T02:40:36;7.57;;;2.40;;
21786;SDS011;11055;50.870;4.316;2023-07-13T02:43:02;6.88;;;2.40;;
21786;SDS011;11055;50.870;4.316;2023-07-13T02:45:28;6.22;;;2.20;;
21786;SDS011;11055;50.870;4.316;2023-07-13T02:47:54;9.35;;;2.30;;
21786;SDS011;11055;50.870;4.316;2023-07-13T02:50:19;8.45;;;2.53;;
21786;SDS011;11055;50.870;4.316;2023-07-13T02:52:45;9.35;;;2.47;;
21786;SDS011;11055;50.870;4.316;2023-07-13T02:55:11;9.60;;;2.47;;
21786;SDS011;11055;50.870;4.316;2023-07-13T02:57:37;8.05;;;3.05;;
21786;SDS011;11055;50.870;4.316;2023-07-13T03:00:03;10.85;;;2.47;;
21786;SDS011;11055;50.870;4.316;2023-07-13T03:02:33;11.82;;;3.03;;
21786;SDS011;11055;50.870;4.316;2023-07-13T03:04:59;6.95;;;2.25;;
21786;SDS011;11055;50.870;4.316;2023-07-13T03:07:26;9.23;;;2.85;;
21786;SDS011;11055;50.870;4.316;2023-07-13T03:09:56;10.65;;;2.67;;
21786;SDS011;11055;50.870;4.316;2023-07-13T03:12:22;10.60;;;2.65;;
21786;SDS011;11055;50.870;4.316;2023-07-13T03:14:48;7.68;;;2.47;;
21786;SDS011;11055;50.870;4.316;2023-07-13T03:17:14;16.02;;;3.20;;
21786;SDS011;11055;50.870;4.316;2023-07-13T03:19:40;9.77;;;3.10;;
21786;SDS011;11055;50.870;4.316;2023-07-13T03:22:06;10.15;;;2.78;;
21786;SDS011;11055;50.870;4.316;2023-07-13T03:24:34;11.77;;;3.53;;
21786;SDS011;11055;50.870;4.316;2023-07-13T03:29:29;10.85;;;2.53;;
21786;SDS011;11055;50.870;4.316;2023-07-13T03:31:55;9.65;;;3.10;;
21786;SDS011;11055;50.870;4.316;2023-07-13T03:34:20;8.80;;;2.60;;
21786;SDS011;11055;50.870;4.316;2023-07-13T03:36:46;8.20;;;2.58;;
21786;SDS011;11055;50.870;4.316;2023-07-13T03:39:12;12.30;;;2.67;;
21786;SDS011;11055;50.870;4.316;2023-07-13T03:41:38;9.55;;;2.90;;
21786;SDS011;11055;50.870;4.316;2023-07-13T03:44:03;10.25;;;2.65;;
21786;SDS011;11055;50.870;4.316;2023-07-13T03:46:29;9.65;;;3.35;;
21786;SDS011;11055;50.870;4.316;2023-07-13T03:48:57;13.15;;;3.20;;
21786;SDS011;11055;50.870;4.316;2023-07-13T03:51:23;12.80;;;3.10;;
21786;SDS011;11055;50.870;4.316;2023-07-13T03:53:49;9.77;;;2.80;;
21786;SDS011;11055;50.870;4.316;2023-07-13T03:56:15;7.90;;;2.92;;
21786;SDS011;11055;50.870;4.316;2023-07-13T03:58:43;12.23;;;3.00;;
21786;SDS011;11055;50.870;4.316;2023-07-13T04:01:11;12.02;;;3.80;;
21786;SDS011;11055;50.870;4.316;2023-07-13T04:03:39;8.38;;;3.22;;
21786;SDS011;11055;50.870;4.316;2023-07-13T04:06:06;12.45;;;2.95;;
21786;SDS011;11055;50.870;4.316;2023-07-13T04:08:34;11.27;;;3.20;;
21786;SDS011;11055;50.870;4.316;2023-07-13T04:11:03;10.88;;;3.30;;
21786;SDS011;11055;50.870;4.316;2023-07-13T04:13:29;10.85;;;3.28;;
21786;SDS011;11055;50.870;4.316;2023-07-13T04:15:55;11.90;;;3.40;;
21786;SDS011;11055;50.870;4.316;2023-07-13T04:18:20;12.45;;;3.65;;
21786;SDS011;11055;50.870;4.316;2023-07-13T04:20:47;9.10;;;3.13;;
21786;SDS011;11055;50.870;4.316;2023-07-13T04:23:14;11.50;;;3.15;;
21786;SDS011;11055;50.870;4.316;2023-07-13T04:25:43;10.05;;;2.97;;
21786;SDS011;11055;50.870;4.316;2023-07-13T04:28:09;12.80;;;3.38;;
21786;SDS011;11055;50.870;4.316;2023-07-13T04:30:35;10.32;;;2.78;;
21786;SDS011;11055;50.870;4.316;2023-07-13T04:33:00;10.65;;;3.22;;
21786;SDS011;11055;50.870;4.316;2023-07-13T04:35:26;10.73;;;3.15;;
21786;SDS011;11055;50.870;4.316;2023-07-13T04:37:52;14.30;;;3.70;;
21786;SDS011;11055;50.870;4.316;2023-07-13T04:40:18;11.15;;;3.03;;
21786;SDS011;11055;50.870;4.316;2023-07-13T04:42:44;9.98;;;3.42;;
21786;SDS011;11055;50.870;4.316;2023-07-13T04:45:11;12.25;;;3.08;;
21786;SDS011;11055;50.870;4.316;2023-07-13T04:47:38;9.45;;;2.88;;
21786;SDS011;11055;50.870;4.316;2023-07-13T04:50:04;14.57;;;3.63;;
21786;SDS011;11055;50.870;4.316;2023-07-13T04:52:31;10.43;;;3.20;;
21786;SDS011;11055;50.870;4.316;2023-07-13T04:54:58;15.02;;;3.35;;
21786;SDS011;11055;50.870;4.316;2023-07-13T04:57:24;16.23;;;3.45;;
21786;SDS011;11055;50.870;4.316;2023-07-13T04:59:50;12.15;;;3.40;;
21786;SDS011;11055;50.870;4.316;2023-07-13T05:02:16;13.52;;;2.95;;
21786;SDS011;11055;50.870;4.316;2023-07-13T05:04:41;10.15;;;2.70;;
21786;SDS011;11055;50.870;4.316;2023-07-13T05:07:07;12.48;;;3.35;;
21786;SDS011;11055;50.870;4.316;2023-07-13T05:09:32;16.60;;;4.00;;
21786;SDS011;11055;50.870;4.316;2023-07-13T05:11:58;12.30;;;3.45;;
21786;SDS011;11055;50.870;4.316;2023-07-13T05:14:24;11.40;;;3.30;;
21786;SDS011;11055;50.870;4.316;2023-07-13T05:16:49;11.10;;;3.10;;
21786;SDS011;11055;50.870;4.316;2023-07-13T05:19:15;10.93;;;3.33;;
21786;SDS011;11055;50.870;4.316;2023-07-13T05:21:40;11.52;;;3.63;;
21786;SDS011;11055;50.870;4.316;2023-07-13T05:24:06;13.32;;;3.28;;
21786;SDS011;11055;50.870;4.316;2023-07-13T05:26:32;9.27;;;3.38;;
21786;SDS011;11055;50.870;4.316;2023-07-13T05:28:57;10.23;;;3.30;;
21786;SDS011;11055;50.870;4.316;2023-07-13T05:31:23;18.23;;;3.63;;
21786;SDS011;11055;50.870;4.316;2023-07-13T05:33:49;13.70;;;3.45;;
21786;SDS011;11055;50.870;4.316;2023-07-13T05:36:14;14.68;;;3.22;;
21786;SDS011;11055;50.870;4.316;2023-07-13T05:38:40;11.40;;;3.72;;
21786;SDS011;11055;50.870;4.316;2023-07-13T05:41:06;13.48;;;3.10;;
21786;SDS011;11055;50.870;4.316;2023-07-13T05:43:32;12.48;;;3.40;;
21786;SDS011;11055;50.870;4.316;2023-07-13T05:45:58;8.93;;;3.42;;
21786;SDS011;11055;50.870;4.316;2023-07-13T05:48:24;14.25;;;3.95;;
21786;SDS011;11055;50.870;4.316;2023-07-13T05:50:49;9.13;;;3.25;;
21786;SDS011;11055;50.870;4.316;2023-07-13T05:53:15;11.02;;;3.78;;
21786;SDS011;11055;50.870;4.316;2023-07-13T05:55:41;13.73;;;3.38;;
21786;SDS011;11055;50.870;4.316;2023-07-13T05:58:08;11.15;;;3.42;;
21786;SDS011;11055;50.870;4.316;2023-07-13T06:00:34;11.45;;;2.95;;
21786;SDS011;11055;50.870;4.316;2023-07-13T06:02:59;15.52;;;3.80;;
21786;SDS011;11055;50.870;4.316;2023-07-13T06:05:25;12.07;;;3.17;;
21786;SDS011;11055;50.870;4.316;2023-07-13T06:07:54;11.05;;;3.38;;
21786;SDS011;11055;50.870;4.316;2023-07-13T06:10:20;10.52;;;3.25;;
21786;SDS011;11055;50.870;4.316;2023-07-13T06:12:46;13.30;;;3.20;;
21786;SDS011;11055;50.870;4.316;2023-07-13T06:15:11;15.00;;;3.45;;
21786;SDS011;11055;50.870;4.316;2023-07-13T06:17:37;13.00;;;3.42;;
21786;SDS011;11055;50.870;4.316;2023-07-13T06:20:03;13.23;;;3.70;;
21786;SDS011;11055;50.870;4.316;2023-07-13T06:22:29;12.95;;;3.30;;
21786;SDS011;11055;50.870;4.316;2023-07-13T06:24:55;12.32;;;3.33;;
21786;SDS011;11055;50.870;4.316;2023-07-13T06:27:20;15.35;;;3.42;;
21786;SDS011;11055;50.870;4.316;2023-07-13T06:29:46;17.85;;;3.97;;
21786;SDS011;11055;50.870;4.316;2023-07-13T06:32:12;10.30;;;3.35;;
21786;SDS011;11055;50.870;4.316;2023-07-13T06:34:37;14.50;;;3.42;;
21786;SDS011;11055;50.870;4.316;2023-07-13T06:37:03;15.43;;;4.18;;
21786;SDS011;11055;50.870;4.316;2023-07-13T06:39:29;17.88;;;8.07;;
21786;SDS011;11055;50.870;4.316;2023-07-13T06:41:57;10.98;;;4.20;;
21786;SDS011;11055;50.870;4.316;2023-07-13T06:44:23;13.95;;;3.75;;
21786;SDS011;11055;50.870;4.316;2023-07-13T06:46:49;9.95;;;3.13;;
21786;SDS011;11055;50.870;4.316;2023-07-13T06:49:14;24.63;;;12.10;;
21786;SDS011;11055;50.870;4.316;2023-07-13T06:51:40;13.70;;;3.88;;
21786;SDS011;11055;50.870;4.316;2023-07-13T06:54:05;15.20;;;3.58;;
21786;SDS011;11055;50.870;4.316;2023-07-13T06:56:31;9.00;;;3.83;;
21786;SDS011;11055;50.870;4.316;2023-07-13T06:58:57;14.73;;;3.47;;
21786;SDS011;11055;50.870;4.316;2023-07-13T07:01:22;13.73;;;3.80;;
21786;SDS011;11055;50.870;4.316;2023-07-13T07:03:48;11.45;;;3.10;;
21786;SDS011;11055;50.870;4.316;2023-07-13T07:06:15;11.63;;;3.33;;
21786;SDS011;11055;50.870;4.316;2023-07-13T07:08:42;13.43;;;3.45;;
21786;SDS011;11055;50.870;4.316;2023-07-13T07:11:14;12.43;;;3.22;;
21786;SDS011;11055;50.870;4.316;2023-07-13T07:13:41;13.48;;;4.88;;
21786;SDS011;11055;50.870;4.316;2023-07-13T07:16:07;9.98;;;4.65;;
21786;SDS011;11055;50.870;4.316;2023-07-13T07:18:33;14.45;;;3.78;;
21786;SDS011;11055;50.870;4.316;2023-07-13T07:20:59;14.32;;;3.58;;
21786;SDS011;11055;50.870;4.316;2023-07-13T07:23:25;10.25;;;3.00;;
21786;SDS011;11055;50.870;4.316;2023-07-13T07:25:51;11.20;;;3.33;;
21786;SDS011;11055;50.870;4.316;2023-07-13T07:28:17;13.93;;;3.47;;
21786;SDS011;11055;50.870;4.316;2023-07-13T07:30:46;14.50;;;3.72;;
21786;SDS011;11055;50.870;4.316;2023-07-13T07:33:13;12.43;;;3.90;;
21786;SDS011;11055;50.870;4.316;2023-07-13T07:35:40;12.23;;;3.58;;
21786;SDS011;11055;50.870;4.316;2023-07-13T07:38:05;11.68;;;3.42;;
21786;SDS011;11055;50.870;4.316;2023-07-13T07:40:31;15.23;;;3.10;;
21786;SDS011;11055;50.870;4.316;2023-07-13T07:43:01;10.48;;;3.42;;
21786;SDS011;11055;50.870;4.316;2023-07-13T07:45:26;12.65;;;3.33;;
21786;SDS011;11055;50.870;4.316;2023-07-13T07:47:52;9.65;;;3.35;;
21786;SDS011;11055;50.870;4.316;2023-07-13T07:50:20;12.18;;;3.80;;
21786;SDS011;11055;50.870;4.316;2023-07-13T07:52:45;12.80;;;3.10;;
21786;SDS011;11055;50.870;4.316;2023-07-13T07:55:11;14.15;;;3.55;;
21786;SDS011;11055;50.870;4.316;2023-07-13T07:57:36;13.52;;;3.60;;
21786;SDS011;11055;50.870;4.316;2023-07-13T08:00:02;10.77;;;2.92;;
21786;SDS011;11055;50.870;4.316;2023-07-13T08:02:28;11.80;;;3.45;;
21786;SDS011;11055;50.870;4.316;2023-07-13T08:04:54;8.48;;;3.00;;
21786;SDS011;11055;50.870;4.316;2023-07-13T08:07:19;11.77;;;3.90;;
21786;SDS011;11055;50.870;4.316;2023-07-13T08:09:45;10.00;;;3.30;;
21786;SDS011;11055;50.870;4.316;2023-07-13T08:12:12;12.27;;;3.17;;
21786;SDS011;11055;50.870;4.316;2023-07-13T08:14:37;9.70;;;3.03;;
21786;SDS011;11055;50.870;4.316;2023-07-13T08:17:03;14.00;;;3.33;;
21786;SDS011;11055;50.870;4.316;2023-07-13T08:19:30;11.75;;;3.40;;
21786;SDS011;11055;50.870;4.316;2023-07-13T08:21:55;7.25;;;2.90;;
21786;SDS011;11055;50.870;4.316;2023-07-13T08:24:22;11.30;;;3.13;;
21786;SDS011;11055;50.870;4.316;2023-07-13T08:26:48;10.70;;;3.30;;
21786;SDS011;11055;50.870;4.316;2023-07-13T08:29:15;13.35;;;2.95;;
21786;SDS011;11055;50.870;4.316;2023-07-13T08:31:41;11.90;;;3.13;;
21786;SDS011;11055;50.870;4.316;2023-07-13T08:34:06;10.60;;;3.53;;
21786;SDS011;11055;50.870;4.316;2023-07-13T08:36:32;8.68;;;2.90;;
21786;SDS011;11055;50.870;4.316;2023-07-13T08:38:58;13.38;;;3.35;;
21786;SDS011;11055;50.870;4.316;2023-07-13T08:41:23;8.90;;;2.85;;
21786;SDS011;11055;50.870;4.316;2023-07-13T08:43:51;10.55;;;3.45;;
21786;SDS011;11055;50.870;4.316;2023-07-13T08:46:24;10.52;;;3.08;;
21786;SDS011;11055;50.870;4.316;2023-07-13T08:48:56;11.70;;;3.53;;
21786;SDS011;11055;50.870;4.316;2023-07-13T08:54:03;7.75;;;2.67;;
21786;SDS011;11055;50.870;4.316;2023-07-13T08:56:35;8.20;;;2.97;;
21786;SDS011;11055;50.870;4.316;2023-07-13T08:59:04;6.15;;;2.70;;
21786;SDS011;11055;50.870;4.316;2023-07-13T09:04:25;11.98;;;3.00;;
21786;SDS011;11055;50.870;4.316;2023-07-13T09:12:07;13.15;;;2.85;;
21786;SDS011;11055;50.870;4.316;2023-07-13T09:17:17;9.85;;;5.15;;
21786;SDS011;11055;50.870;4.316;2023-07-13T09:19:47;11.30;;;3.60;;
21786;SDS011;11055;50.870;4.316;2023-07-13T09:22:18;7.47;;;2.40;;
21786;SDS011;11055;50.870;4.316;2023-07-13T09:27:22;9.55;;;2.88;;
21786;SDS011;11055;50.870;4.316;2023-07-13T09:29:54;9.23;;;2.80;;
21786;SDS011;11055;50.870;4.316;2023-07-13T09:32:30;10.15;;;2.65;;
21786;SDS011;11055;50.870;4.316;2023-07-13T09:34:57;8.13;;;2.58;;
21786;SDS011;11055;50.870;4.316;2023-07-13T09:37:28;7.82;;;3.20;;
21786;SDS011;11055;50.870;4.316;2023-07-13T09:39:58;8.48;;;2.65;;
21786;SDS011;11055;50.870;4.316;2023-07-13T09:42:27;11.85;;;3.05;;
21786;SDS011;11055;50.870;4.316;2023-07-13T09:44:54;6.90;;;2.55;;
21786;SDS011;11055;50.870;4.316;2023-07-13T09:47:22;9.02;;;2.47;;
21786;SDS011;11055;50.870;4.316;2023-07-13T09:49:57;7.55;;;2.33;;
21786;SDS011;11055;50.870;4.316;2023-07-13T09:52:24;7.22;;;2.15;;
21786;SDS011;11055;50.870;4.316;2023-07-13T09:54:52;8.38;;;2.60;;
21786;SDS011;11055;50.870;4.316;2023-07-13T09:57:24;5.93;;;2.55;;
21786;SDS011;11055;50.870;4.316;2023-07-13T09:59:52;8.48;;;2.65;;
21786;SDS011;11055;50.870;4.316;2023-07-13T10:02:32;7.32;;;2.40;;
21786;SDS011;11055;50.870;4.316;2023-07-13T10:07:25;7.50;;;2.40;;
21786;SDS011;11055;50.870;4.316;2023-07-13T10:09:54;6.22;;;2.75;;
21786;SDS011;11055;50.870;4.316;2023-07-13T10:12:22;6.20;;;2.10;;
21786;SDS011;11055;50.870;4.316;2023-07-13T10:14:54;6.57;;;2.25;;
21786;SDS011;11055;50.870;4.316;2023-07-13T10:17:29;6.93;;;2.17;;
21786;SDS011;11055;50.870;4.316;2023-07-13T10:19:59;5.57;;;2.10;;
21786;SDS011;11055;50.870;4.316;2023-07-13T10:25:25;6.07;;;2.20;;
21786;SDS011;11055;50.870;4.316;2023-07-13T10:27:55;5.70;;;2.40;;
21786;SDS011;11055;50.870;4.316;2023-07-13T10:30:28;5.97;;;2.30;;
21786;SDS011;11055;50.870;4.316;2023-07-13T10:33:04;7.35;;;2.90;;
21786;SDS011;11055;50.870;4.316;2023-07-13T10:35:36;4.80;;;2.30;;
21786;SDS011;11055;50.870;4.316;2023-07-13T10:38:07;8.13;;;2.75;;
21786;SDS011;11055;50.870;4.316;2023-07-13T10:40:41;5.68;;;2.42;;
21786;SDS011;11055;50.870;4.316;2023-07-13T10:43:17;7.00;;;2.50;;
21786;SDS011;11055;50.870;4.316;2023-07-13T10:45:48;7.53;;;2.72;;
21786;SDS011;11055;50.870;4.316;2023-07-13T10:48:15;11.75;;;3.13;;
21786;SDS011;11055;50.870;4.316;2023-07-13T10:50:42;6.65;;;2.70;;
21786;SDS011;11055;50.870;4.316;2023-07-13T10:53:18;6.35;;;2.70;;
21786;SDS011;11055;50.870;4.316;2023-07-13T10:58:20;7.28;;;2.80;;
21786;SDS011;11055;50.870;4.316;2023-07-13T11:03:32;8.77;;;2.30;;
21786;SDS011;11055;50.870;4.316;2023-07-13T11:09:07;5.38;;;2.42;;
21786;SDS011;11055;50.870;4.316;2023-07-13T11:12:02;7.85;;;1.98;;
21786;SDS011;11055;50.870;4.316;2023-07-13T11:22:43;7.78;;;3.47;;
21786;SDS011;11055;50.870;4.316;2023-07-13T11:27:45;4.22;;;2.22;;
21786;SDS011;11055;50.870;4.316;2023-07-13T11:38:21;5.38;;;2.08;;
21786;SDS011;11055;50.870;4.316;2023-07-13T11:40:53;4.35;;;2.15;;
21786;SDS011;11055;50.870;4.316;2023-07-13T11:43:20;8.57;;;1.92;;
21786;SDS011;11055;50.870;4.316;2023-07-13T11:45:48;5.20;;;2.00;;
21786;SDS011;11055;50.870;4.316;2023-07-13T11:48:19;4.22;;;1.67;;
21786;SDS011;11055;50.870;4.316;2023-07-13T11:50:49;4.70;;;2.17;;
21786;SDS011;11055;50.870;4.316;2023-07-13T11:53:18;7.03;;;2.20;;
21786;SDS011;11055;50.870;4.316;2023-07-13T11:55:44;4.60;;;2.08;;
21786;SDS011;11055;50.870;4.316;2023-07-13T11:58:19;5.82;;;2.08;;
21786;SDS011;11055;50.870;4.316;2023-07-13T12:00:49;6.80;;;2.85;;
21786;SDS011;11055;50.870;4.316;2023-07-13T12:03:17;5.32;;;2.05;;
21786;SDS011;11055;50.870;4.316;2023-07-13T12:05:59;4.72;;;2.03;;
21786;SDS011;11055;50.870;4.316;2023-07-13T12:08:27;6.00;;;1.77;;
21786;SDS011;11055;50.870;4.316;2023-07-13T12:11:00;6.18;;;1.83;;
21786;SDS011;11055;50.870;4.316;2023-07-13T12:13:34;5.93;;;2.20;;
21786;SDS011;11055;50.870;4.316;2023-07-13T12:16:01;5.93;;;2.10;;
21786;SDS011;11055;50.870;4.316;2023-07-13T12:18:30;7.10;;;2.65;;
21786;SDS011;11055;50.870;4.316;2023-07-13T12:20:59;6.20;;;1.70;;
21786;SDS011;11055;50.870;4.316;2023-07-13T12:25:55;7.80;;;1.83;;
21786;SDS011;11055;50.870;4.316;2023-07-13T12:28:35;4.32;;;1.50;;
21786;SDS011;11055;50.870;4.316;2023-07-13T12:31:04;3.92;;;1.83;;
21786;SDS011;11055;50.870;4.316;2023-07-13T12:33:32;6.85;;;3.70;;
21786;SDS011;11055;50.870;4.316;2023-07-13T12:36:02;6.70;;;2.10;;
21786;SDS011;11055;50.870;4.316;2023-07-13T12:38:30;3.63;;;1.75;;
21786;SDS011;11055;50.870;4.316;2023-07-13T12:40:56;10.10;;;6.07;;
21786;SDS011;11055;50.870;4.316;2023-07-13T12:43:23;4.22;;;2.17;;
21786;SDS011;11055;50.870;4.316;2023-07-13T12:45:58;5.03;;;2.20;;
21786;SDS011;11055;50.870;4.316;2023-07-13T12:48:27;4.13;;;2.08;;
21786;SDS011;11055;50.870;4.316;2023-07-13T12:50:53;4.05;;;2.08;;
21786;SDS011;11055;50.870;4.316;2023-07-13T12:53:21;5.75;;;2.70;;
21786;SDS011;11055;50.870;4.316;2023-07-13T12:55:50;5.90;;;2.60;;
21786;SDS011;11055;50.870;4.316;2023-07-13T12:58:26;5.50;;;2.75;;
21786;SDS011;11055;50.870;4.316;2023-07-13T13:00:55;5.65;;;2.92;;
21786;SDS011;11055;50.870;4.316;2023-07-13T13:06:01;4.13;;;2.08;;
21786;SDS011;11055;50.870;4.316;2023-07-13T13:08:30;4.60;;;2.58;;
21786;SDS011;11055;50.870;4.316;2023-07-13T13:10:57;4.22;;;2.10;;
21786;SDS011;11055;50.870;4.316;2023-07-13T13:13:23;3.72;;;1.90;;
21786;SDS011;11055;50.870;4.316;2023-07-13T13:15:49;2.88;;;1.80;;
21786;SDS011;11055;50.870;4.316;2023-07-13T13:18:19;3.83;;;2.15;;
21786;SDS011;11055;50.870;4.316;2023-07-13T13:20:47;3.47;;;1.80;;
21786;SDS011;11055;50.870;4.316;2023-07-13T13:23:14;3.67;;;2.08;;
21786;SDS011;11055;50.870;4.316;2023-07-13T13:25:43;6.68;;;3.78;;
21786;SDS011;11055;50.870;4.316;2023-07-13T13:28:13;4.18;;;2.50;;
21786;SDS011;11055;50.870;4.316;2023-07-13T13:30:44;3.90;;;2.10;;
21786;SDS011;11055;50.870;4.316;2023-07-13T13:33:12;2.75;;;1.88;;
21786;SDS011;11055;50.870;4.316;2023-07-13T13:35:40;2.90;;;1.63;;
21786;SDS011;11055;50.870;4.316;2023-07-13T13:38:17;2.90;;;1.85;;
21786;SDS011;11055;50.870;4.316;2023-07-13T13:40:47;4.67;;;2.07;;
21786;SDS011;11055;50.870;4.316;2023-07-13T13:43:22;2.97;;;1.70;;
21786;SDS011;11055;50.870;4.316;2023-07-13T13:45:56;3.35;;;2.00;;
21786;SDS011;11055;50.870;4.316;2023-07-13T13:48:31;6.22;;;1.88;;
21786;SDS011;11055;50.870;4.316;2023-07-13T13:50:59;3.33;;;1.70;;
21786;SDS011;11055;50.870;4.316;2023-07-13T13:53:25;4.45;;;1.70;;
21786;SDS011;11055;50.870;4.316;2023-07-13T13:55:52;5.35;;;2.03;;
21786;SDS011;11055;50.870;4.316;2023-07-13T13:58:18;4.35;;;1.90;;
21786;SDS011;11055;50.870;4.316;2023-07-13T14:00:44;8.27;;;2.42;;
21786;SDS011;11055;50.870;4.316;2023-07-13T14:03:17;3.38;;;1.73;;
21786;SDS011;11055;50.870;4.316;2023-07-13T14:05:44;4.80;;;2.35;;
21786;SDS011;11055;50.870;4.316;2023-07-13T14:08:18;4.32;;;2.20;;
21786;SDS011;11055;50.870;4.316;2023-07-13T14:10:46;4.70;;;2.40;;
21786;SDS011;11055;50.870;4.316;2023-07-13T14:13:18;4.07;;;2.00;;
21786;SDS011;11055;50.870;4.316;2023-07-13T14:15:56;4.07;;;2.20;;
21786;SDS011;11055;50.870;4.316;2023-07-13T14:18:22;6.75;;;2.20;;
21786;SDS011;11055;50.870;4.316;2023-07-13T14:20:48;5.00;;;2.25;;
21786;SDS011;11055;50.870;4.316;2023-07-13T14:23:15;6.53;;;2.35;;
21786;SDS011;11055;50.870;4.316;2023-07-13T14:25:43;3.53;;;1.85;;
21786;SDS011;11055;50.870;4.316;2023-07-13T14:28:19;4.68;;;2.20;;
21786;SDS011;11055;50.870;4.316;2023-07-13T14:30:48;3.53;;;1.85;;
21786;SDS011;11055;50.870;4.316;2023-07-13T14:33:14;4.30;;;1.98;;
21786;SDS011;11055;50.870;4.316;2023-07-13T14:35:40;4.05;;;2.00;;
21786;SDS011;11055;50.870;4.316;2023-07-13T14:38:17;4.20;;;1.83;;
21786;SDS011;11055;50.870;4.316;2023-07-13T14:40:44;4.75;;;1.73;;
21786;SDS011;11055;50.870;4.316;2023-07-13T14:43:11;4.57;;;1.50;;
21786;SDS011;11055;50.870;4.316;2023-07-13T14:45:39;4.70;;;1.70;;
21786;SDS011;11055;50.870;4.316;2023-07-13T14:48:13;5.72;;;2.42;;
21786;SDS011;11055;50.870;4.316;2023-07-13T14:50:43;4.05;;;1.50;;
21786;SDS011;11055;50.870;4.316;2023-07-13T14:53:10;4.22;;;1.70;;
21786;SDS011;11055;50.870;4.316;2023-07-13T14:55:37;1.77;;;1.50;;
21786;SDS011;11055;50.870;4.316;2023-07-13T14:58:03;4.18;;;1.75;;
21786;SDS011;11055;50.870;4.316;2023-07-13T15:00:29;3.35;;;1.45;;
21786;SDS011;11055;50.870;4.316;2023-07-13T15:02:56;3.75;;;1.67;;
21786;SDS011;11055;50.870;4.316;2023-07-13T15:05:30;4.97;;;1.73;;
21786;SDS011;11055;50.870;4.316;2023-07-13T15:07:57;3.72;;;2.22;;
21786;SDS011;11055;50.870;4.316;2023-07-13T15:10:26;4.22;;;1.67;;
21786;SDS011;11055;50.870;4.316;2023-07-13T15:13:01;3.70;;;1.90;;
21786;SDS011;11055;50.870;4.316;2023-07-13T15:15:38;4.07;;;2.00;;
21786;SDS011;11055;50.870;4.316;2023-07-13T15:18:09;4.72;;;2.30;;
21786;SDS011;11055;50.870;4.316;2023-07-13T15:20:37;5.22;;;2.40;;
21786;SDS011;11055;50.870;4.316;2023-07-13T15:23:03;4.70;;;3.20;;
21786;SDS011;11055;50.870;4.316;2023-07-13T15:25:30;2.45;;;1.98;;
21786;SDS011;11055;50.870;4.316;2023-07-13T15:27:58;4.40;;;3.55;;
21786;SDS011;11055;50.870;4.316;2023-07-13T15:30:31;9.60;;;7.70;;
21786;SDS011;11055;50.870;4.316;2023-07-13T15:33:10;5.93;;;2.65;;
21786;SDS011;11055;50.870;4.316;2023-07-13T15:35:42;5.05;;;1.80;;
21786;SDS011;11055;50.870;4.316;2023-07-13T15:38:19;2.95;;;2.03;;
21786;SDS011;11055;50.870;4.316;2023-07-13T15:40:47;2.42;;;1.77;;
21786;SDS011;11055;50.870;4.316;2023-07-13T15:43:15;5.40;;;2.13;;